sensor_id;sensor_type;location;lat;lon;timestamp;P1;durP1;ratioP1;P2;durP2;ratioP2
3683;SDS011;1858;48.716;9.648;2023-04-15T00:02:00;3.30;;;2.20;;
3683;SDS011;1858;48.716;9.648;2023-04-15T00:04:32;3.70;;;2.10;;
3683;SDS011;1858;48.716;9.648;2023-04-15T00:07:02;4.80;;;2.33;;
3683;SDS011;1858;48.716;9.648;2023-04-15T00:09:30;7.30;;;2.13;;
3683;SDS011;1858;48.716;9.648;2023-04-15T00:11:58;1.80;;;1.50;;
3683;SDS011;1858;48.716;9.648;2023-04-15T00:14:27;2.20;;;1.60;;
3683;SDS011;1858;48.716;9.648;2023-04-15T00:16:56;5.63;;;2.10;;
3683;SDS011;1858;48.716;9.648;2023-04-15T00:19:24;2.57;;;1.60;;
3683;SDS011;1858;48.716;9.648;2023-04-15T00:21:53;2.67;;;1.47;;
3683;SDS011;1858;48.716;9.648;2023-04-15T00:24:21;3.00;;;1.70;;
3683;SDS011;1858;48.716;9.648;2023-04-15T00:26:50;2.10;;;1.10;;
3683;SDS011;1858;48.716;9.648;2023-04-15T00:29:19;2.17;;;1.23;;
3683;SDS011;1858;48.716;9.648;2023-04-15T00:31:47;6.10;;;2.27;;
3683;SDS011;1858;48.716;9.648;2023-04-15T00:34:16;4.77;;;2.63;;
3683;SDS011;1858;48.716;9.648;2023-04-15T00:36:44;3.33;;;1.57;;
3683;SDS011;1858;48.716;9.648;2023-04-15T00:39:13;3.30;;;1.57;;
3683;SDS011;1858;48.716;9.648;2023-04-15T00:41:43;2.27;;;1.37;;
3683;SDS011;1858;48.716;9.648;2023-04-15T00:44:12;1.90;;;1.10;;
3683;SDS011;1858;48.716;9.648;2023-04-15T00:46:40;2.90;;;1.63;;
3683;SDS011;1858;48.716;9.648;2023-04-15T00:49:11;3.27;;;2.10;;
3683;SDS011;1858;48.716;9.648;2023-04-15T00:51:39;10.47;;;1.10;;
3683;SDS011;1858;48.716;9.648;2023-04-15T00:54:07;1.87;;;1.10;;
3683;SDS011;1858;48.716;9.648;2023-04-15T00:56:36;2.43;;;1.10;;
3683;SDS011;1858;48.716;9.648;2023-04-15T00:59:05;7.10;;;1.30;;
3683;SDS011;1858;48.716;9.648;2023-04-15T01:01:35;2.50;;;1.33;;
3683;SDS011;1858;48.716;9.648;2023-04-15T01:04:04;2.80;;;1.27;;
3683;SDS011;1858;48.716;9.648;2023-04-15T01:06:32;2.27;;;1.10;;
3683;SDS011;1858;48.716;9.648;2023-04-15T01:09:01;2.20;;;1.23;;
3683;SDS011;1858;48.716;9.648;2023-04-15T01:11:30;3.43;;;1.40;;
3683;SDS011;1858;48.716;9.648;2023-04-15T01:14:01;2.83;;;2.13;;
3683;SDS011;1858;48.716;9.648;2023-04-15T01:16:31;2.63;;;1.60;;
3683;SDS011;1858;48.716;9.648;2023-04-15T01:18:59;2.27;;;1.57;;
3683;SDS011;1858;48.716;9.648;2023-04-15T01:21:28;1.93;;;1.23;;
3683;SDS011;1858;48.716;9.648;2023-04-15T01:23:56;3.07;;;1.47;;
3683;SDS011;1858;48.716;9.648;2023-04-15T01:26:25;3.40;;;1.60;;
3683;SDS011;1858;48.716;9.648;2023-04-15T01:28:54;2.73;;;1.20;;
3683;SDS011;1858;48.716;9.648;2023-04-15T01:31:23;6.33;;;1.43;;
3683;SDS011;1858;48.716;9.648;2023-04-15T01:33:51;10.20;;;1.30;;
3683;SDS011;1858;48.716;9.648;2023-04-15T01:36:20;3.13;;;1.33;;
3683;SDS011;1858;48.716;9.648;2023-04-15T01:38:48;3.50;;;1.93;;
3683;SDS011;1858;48.716;9.648;2023-04-15T01:41:21;2.40;;;1.30;;
3683;SDS011;1858;48.716;9.648;2023-04-15T01:43:52;9.33;;;2.00;;
3683;SDS011;1858;48.716;9.648;2023-04-15T01:46:21;3.00;;;1.50;;
3683;SDS011;1858;48.716;9.648;2023-04-15T01:48:50;9.87;;;1.60;;
3683;SDS011;1858;48.716;9.648;2023-04-15T01:51:18;2.13;;;1.37;;
3683;SDS011;1858;48.716;9.648;2023-04-15T01:53:47;5.83;;;2.00;;
3683;SDS011;1858;48.716;9.648;2023-04-15T01:56:16;3.73;;;2.50;;
3683;SDS011;1858;48.716;9.648;2023-04-15T01:58:44;3.13;;;1.43;;
3683;SDS011;1858;48.716;9.648;2023-04-15T02:01:13;3.20;;;1.67;;
3683;SDS011;1858;48.716;9.648;2023-04-15T02:03:42;3.13;;;1.67;;
3683;SDS011;1858;48.716;9.648;2023-04-15T02:06:11;2.63;;;1.93;;
3683;SDS011;1858;48.716;9.648;2023-04-15T02:08:39;6.13;;;2.20;;
3683;SDS011;1858;48.716;9.648;2023-04-15T02:11:07;3.50;;;1.80;;
3683;SDS011;1858;48.716;9.648;2023-04-15T02:13:36;3.33;;;1.60;;
3683;SDS011;1858;48.716;9.648;2023-04-15T02:16:04;2.77;;;1.53;;
3683;SDS011;1858;48.716;9.648;2023-04-15T02:18:44;6.90;;;1.77;;
3683;SDS011;1858;48.716;9.648;2023-04-15T02:21:13;2.60;;;1.80;;
3683;SDS011;1858;48.716;9.648;2023-04-15T02:23:41;2.00;;;1.27;;
3683;SDS011;1858;48.716;9.648;2023-04-15T02:26:10;2.23;;;1.30;;
3683;SDS011;1858;48.716;9.648;2023-04-15T02:28:39;2.57;;;1.53;;
3683;SDS011;1858;48.716;9.648;2023-04-15T02:31:07;2.00;;;1.07;;
3683;SDS011;1858;48.716;9.648;2023-04-15T02:33:36;2.83;;;1.47;;
3683;SDS011;1858;48.716;9.648;2023-04-15T02:36:04;3.80;;;1.47;;
3683;SDS011;1858;48.716;9.648;2023-04-15T02:38:34;3.63;;;1.73;;
3683;SDS011;1858;48.716;9.648;2023-04-15T02:41:03;2.67;;;1.70;;
3683;SDS011;1858;48.716;9.648;2023-04-15T02:43:32;6.63;;;1.30;;
3683;SDS011;1858;48.716;9.648;2023-04-15T02:46:00;2.40;;;1.40;;
3683;SDS011;1858;48.716;9.648;2023-04-15T02:48:29;3.70;;;1.93;;
3683;SDS011;1858;48.716;9.648;2023-04-15T02:51:12;3.83;;;1.50;;
3683;SDS011;1858;48.716;9.648;2023-04-15T02:53:42;3.20;;;1.90;;
3683;SDS011;1858;48.716;9.648;2023-04-15T02:56:10;3.03;;;1.20;;
3683;SDS011;1858;48.716;9.648;2023-04-15T02:58:41;6.20;;;2.10;;
3683;SDS011;1858;48.716;9.648;2023-04-15T03:01:10;2.47;;;1.47;;
3683;SDS011;1858;48.716;9.648;2023-04-15T03:03:39;2.83;;;1.50;;
3683;SDS011;1858;48.716;9.648;2023-04-15T03:06:07;2.70;;;1.70;;
3683;SDS011;1858;48.716;9.648;2023-04-15T03:08:36;1.90;;;1.23;;
3683;SDS011;1858;48.716;9.648;2023-04-15T03:11:04;2.70;;;2.23;;
3683;SDS011;1858;48.716;9.648;2023-04-15T03:13:33;2.00;;;1.63;;
3683;SDS011;1858;48.716;9.648;2023-04-15T03:16:01;3.30;;;2.10;;
3683;SDS011;1858;48.716;9.648;2023-04-15T03:18:31;5.60;;;2.07;;
3683;SDS011;1858;48.716;9.648;2023-04-15T03:20:59;3.13;;;1.77;;
3683;SDS011;1858;48.716;9.648;2023-04-15T03:23:29;5.37;;;2.50;;
3683;SDS011;1858;48.716;9.648;2023-04-15T03:26:00;3.13;;;1.90;;
3683;SDS011;1858;48.716;9.648;2023-04-15T03:28:29;3.43;;;2.07;;
3683;SDS011;1858;48.716;9.648;2023-04-15T03:30:58;2.53;;;1.80;;
3683;SDS011;1858;48.716;9.648;2023-04-15T03:33:26;4.83;;;2.53;;
3683;SDS011;1858;48.716;9.648;2023-04-15T03:35:55;5.60;;;3.23;;
3683;SDS011;1858;48.716;9.648;2023-04-15T03:38:23;4.23;;;2.10;;
3683;SDS011;1858;48.716;9.648;2023-04-15T03:40:52;5.37;;;1.87;;
3683;SDS011;1858;48.716;9.648;2023-04-15T03:43:21;2.83;;;1.97;;
3683;SDS011;1858;48.716;9.648;2023-04-15T03:45:49;2.80;;;1.93;;
3683;SDS011;1858;48.716;9.648;2023-04-15T03:48:18;3.10;;;2.30;;
3683;SDS011;1858;48.716;9.648;2023-04-15T03:50:46;2.17;;;1.60;;
3683;SDS011;1858;48.716;9.648;2023-04-15T03:53:14;2.50;;;1.30;;
3683;SDS011;1858;48.716;9.648;2023-04-15T03:55:43;1.90;;;1.30;;
3683;SDS011;1858;48.716;9.648;2023-04-15T03:58:12;2.03;;;1.57;;
3683;SDS011;1858;48.716;9.648;2023-04-15T04:00:40;5.53;;;1.30;;
3683;SDS011;1858;48.716;9.648;2023-04-15T04:03:09;3.00;;;1.50;;
3683;SDS011;1858;48.716;9.648;2023-04-15T04:05:37;3.93;;;2.10;;
3683;SDS011;1858;48.716;9.648;2023-04-15T04:08:07;2.83;;;1.50;;
3683;SDS011;1858;48.716;9.648;2023-04-15T04:10:35;2.43;;;1.77;;
3683;SDS011;1858;48.716;9.648;2023-04-15T04:13:04;4.30;;;1.83;;
3683;SDS011;1858;48.716;9.648;2023-04-15T04:15:32;2.80;;;1.47;;
3683;SDS011;1858;48.716;9.648;2023-04-15T04:18:01;2.80;;;1.67;;
3683;SDS011;1858;48.716;9.648;2023-04-15T04:20:29;4.17;;;1.90;;
3683;SDS011;1858;48.716;9.648;2023-04-15T04:23:01;4.40;;;1.90;;
3683;SDS011;1858;48.716;9.648;2023-04-15T04:25:32;2.83;;;2.20;;
3683;SDS011;1858;48.716;9.648;2023-04-15T04:28:00;1.90;;;1.33;;
3683;SDS011;1858;48.716;9.648;2023-04-15T04:30:29;3.70;;;2.00;;
3683;SDS011;1858;48.716;9.648;2023-04-15T04:32:58;2.93;;;1.83;;
3683;SDS011;1858;48.716;9.648;2023-04-15T04:35:26;8.20;;;1.63;;
3683;SDS011;1858;48.716;9.648;2023-04-15T04:37:58;3.73;;;1.47;;
3683;SDS011;1858;48.716;9.648;2023-04-15T04:40:29;7.73;;;1.30;;
3683;SDS011;1858;48.716;9.648;2023-04-15T04:42:58;2.70;;;1.70;;
3683;SDS011;1858;48.716;9.648;2023-04-15T04:45:27;3.47;;;1.50;;
3683;SDS011;1858;48.716;9.648;2023-04-15T04:47:56;2.20;;;1.63;;
3683;SDS011;1858;48.716;9.648;2023-04-15T04:50:24;2.70;;;2.03;;
3683;SDS011;1858;48.716;9.648;2023-04-15T04:52:56;3.57;;;2.20;;
3683;SDS011;1858;48.716;9.648;2023-04-15T04:55:27;4.63;;;3.00;;
3683;SDS011;1858;48.716;9.648;2023-04-15T04:58:00;4.97;;;3.00;;
3683;SDS011;1858;48.716;9.648;2023-04-15T05:00:35;2.63;;;1.43;;
3683;SDS011;1858;48.716;9.648;2023-04-15T05:03:13;4.33;;;1.60;;
3683;SDS011;1858;48.716;9.648;2023-04-15T05:05:42;3.40;;;2.20;;
3683;SDS011;1858;48.716;9.648;2023-04-15T05:08:13;2.10;;;1.40;;
3683;SDS011;1858;48.716;9.648;2023-04-15T05:10:44;2.40;;;1.70;;
3683;SDS011;1858;48.716;9.648;2023-04-15T05:13:13;5.10;;;2.37;;
3683;SDS011;1858;48.716;9.648;2023-04-15T05:15:53;2.17;;;1.40;;
3683;SDS011;1858;48.716;9.648;2023-04-15T05:18:21;4.20;;;2.30;;
3683;SDS011;1858;48.716;9.648;2023-04-15T05:20:55;2.83;;;1.80;;
3683;SDS011;1858;48.716;9.648;2023-04-15T05:23:24;2.60;;;1.60;;
3683;SDS011;1858;48.716;9.648;2023-04-15T05:25:54;2.83;;;1.43;;
3683;SDS011;1858;48.716;9.648;2023-04-15T05:31:04;7.53;;;1.23;;
3683;SDS011;1858;48.716;9.648;2023-04-15T05:33:37;2.93;;;1.80;;
3683;SDS011;1858;48.716;9.648;2023-04-15T05:36:06;3.17;;;2.10;;
3683;SDS011;1858;48.716;9.648;2023-04-15T05:38:36;5.37;;;2.50;;
3683;SDS011;1858;48.716;9.648;2023-04-15T05:41:07;2.80;;;1.83;;
3683;SDS011;1858;48.716;9.648;2023-04-15T05:43:36;3.47;;;2.03;;
3683;SDS011;1858;48.716;9.648;2023-04-15T05:46:05;2.73;;;1.63;;
3683;SDS011;1858;48.716;9.648;2023-04-15T05:48:34;2.80;;;1.83;;
3683;SDS011;1858;48.716;9.648;2023-04-15T05:51:03;5.33;;;2.50;;
3683;SDS011;1858;48.716;9.648;2023-04-15T05:53:34;3.50;;;2.17;;
3683;SDS011;1858;48.716;9.648;2023-04-15T05:56:09;3.00;;;2.00;;
3683;SDS011;1858;48.716;9.648;2023-04-15T05:58:42;3.53;;;2.00;;
3683;SDS011;1858;48.716;9.648;2023-04-15T06:01:16;3.30;;;1.97;;
3683;SDS011;1858;48.716;9.648;2023-04-15T06:03:48;3.40;;;2.30;;
3683;SDS011;1858;48.716;9.648;2023-04-15T06:06:27;2.77;;;2.00;;
3683;SDS011;1858;48.716;9.648;2023-04-15T06:08:55;7.43;;;2.40;;
3683;SDS011;1858;48.716;9.648;2023-04-15T06:11:24;3.17;;;2.37;;
3683;SDS011;1858;48.716;9.648;2023-04-15T06:13:59;4.40;;;3.03;;
3683;SDS011;1858;48.716;9.648;2023-04-15T06:16:27;3.93;;;2.33;;
3683;SDS011;1858;48.716;9.648;2023-04-15T06:18:56;4.13;;;2.40;;
3683;SDS011;1858;48.716;9.648;2023-04-15T06:21:28;3.27;;;2.20;;
3683;SDS011;1858;48.716;9.648;2023-04-15T06:23:58;5.90;;;2.40;;
3683;SDS011;1858;48.716;9.648;2023-04-15T06:26:31;3.73;;;2.33;;
3683;SDS011;1858;48.716;9.648;2023-04-15T06:29:01;4.97;;;2.10;;
3683;SDS011;1858;48.716;9.648;2023-04-15T06:31:30;4.10;;;2.20;;
3683;SDS011;1858;48.716;9.648;2023-04-15T06:33:59;7.60;;;2.27;;
3683;SDS011;1858;48.716;9.648;2023-04-15T06:36:28;4.97;;;2.43;;
3683;SDS011;1858;48.716;9.648;2023-04-15T06:38:56;4.00;;;2.70;;
3683;SDS011;1858;48.716;9.648;2023-04-15T06:41:25;25.97;;;3.40;;
3683;SDS011;1858;48.716;9.648;2023-04-15T06:44:09;2.37;;;1.47;;
3683;SDS011;1858;48.716;9.648;2023-04-15T06:46:30;2.57;;;1.70;;
3683;SDS011;1858;48.716;9.648;2023-04-15T06:48:58;3.80;;;1.93;;
3683;SDS011;1858;48.716;9.648;2023-04-15T06:51:27;6.37;;;1.77;;
3683;SDS011;1858;48.716;9.648;2023-04-15T06:53:59;4.93;;;1.60;;
3683;SDS011;1858;48.716;9.648;2023-04-15T06:56:33;4.93;;;2.23;;
3683;SDS011;1858;48.716;9.648;2023-04-15T06:59:01;3.83;;;2.17;;
3683;SDS011;1858;48.716;9.648;2023-04-15T07:04:03;3.13;;;2.10;;
3683;SDS011;1858;48.716;9.648;2023-04-15T07:06:33;3.90;;;2.10;;
3683;SDS011;1858;48.716;9.648;2023-04-15T07:09:02;7.53;;;2.43;;
3683;SDS011;1858;48.716;9.648;2023-04-15T07:11:31;2.87;;;1.73;;
3683;SDS011;1858;48.716;9.648;2023-04-15T07:14:00;3.30;;;1.70;;
3683;SDS011;1858;48.716;9.648;2023-04-15T07:16:33;4.37;;;2.40;;
3683;SDS011;1858;48.716;9.648;2023-04-15T07:19:01;5.30;;;1.93;;
3683;SDS011;1858;48.716;9.648;2023-04-15T07:21:30;3.20;;;2.20;;
3683;SDS011;1858;48.716;9.648;2023-04-15T07:23:59;4.53;;;2.03;;
3683;SDS011;1858;48.716;9.648;2023-04-15T07:26:30;2.90;;;1.73;;
3683;SDS011;1858;48.716;9.648;2023-04-15T07:29:01;2.77;;;2.17;;
3683;SDS011;1858;48.716;9.648;2023-04-15T07:31:30;3.53;;;2.30;;
3683;SDS011;1858;48.716;9.648;2023-04-15T07:33:59;3.03;;;1.73;;
3683;SDS011;1858;48.716;9.648;2023-04-15T07:36:28;3.13;;;1.53;;
3683;SDS011;1858;48.716;9.648;2023-04-15T07:41:39;5.47;;;2.60;;
3683;SDS011;1858;48.716;9.648;2023-04-15T07:44:08;9.20;;;1.90;;
3683;SDS011;1858;48.716;9.648;2023-04-15T07:46:50;3.13;;;1.80;;
3683;SDS011;1858;48.716;9.648;2023-04-15T07:49:22;5.43;;;2.70;;
3683;SDS011;1858;48.716;9.648;2023-04-15T07:51:54;4.20;;;1.90;;
3683;SDS011;1858;48.716;9.648;2023-04-15T07:54:23;5.10;;;2.63;;
3683;SDS011;1858;48.716;9.648;2023-04-15T07:56:55;2.37;;;1.30;;
3683;SDS011;1858;48.716;9.648;2023-04-15T07:59:27;2.90;;;1.47;;
3683;SDS011;1858;48.716;9.648;2023-04-15T08:01:59;6.37;;;1.70;;
3683;SDS011;1858;48.716;9.648;2023-04-15T08:04:29;5.10;;;1.90;;
3683;SDS011;1858;48.716;9.648;2023-04-15T08:07:01;3.07;;;1.67;;
3683;SDS011;1858;48.716;9.648;2023-04-15T08:09:30;6.37;;;2.20;;
3683;SDS011;1858;48.716;9.648;2023-04-15T08:11:59;6.13;;;1.73;;
3683;SDS011;1858;48.716;9.648;2023-04-15T08:14:35;4.13;;;1.33;;
3683;SDS011;1858;48.716;9.648;2023-04-15T08:17:06;5.37;;;2.20;;
3683;SDS011;1858;48.716;9.648;2023-04-15T08:19:45;3.70;;;1.60;;
3683;SDS011;1858;48.716;9.648;2023-04-15T08:22:10;4.90;;;1.97;;
3683;SDS011;1858;48.716;9.648;2023-04-15T08:24:40;3.43;;;1.70;;
3683;SDS011;1858;48.716;9.648;2023-04-15T08:27:09;3.50;;;1.63;;
3683;SDS011;1858;48.716;9.648;2023-04-15T08:29:40;4.53;;;2.20;;
3683;SDS011;1858;48.716;9.648;2023-04-15T08:32:14;2.80;;;1.30;;
3683;SDS011;1858;48.716;9.648;2023-04-15T08:34:39;3.50;;;2.30;;
3683;SDS011;1858;48.716;9.648;2023-04-15T08:37:10;2.83;;;1.33;;
3683;SDS011;1858;48.716;9.648;2023-04-15T08:39:44;4.63;;;2.40;;
3683;SDS011;1858;48.716;9.648;2023-04-15T08:42:16;2.63;;;1.53;;
3683;SDS011;1858;48.716;9.648;2023-04-15T08:44:55;2.90;;;1.40;;
3683;SDS011;1858;48.716;9.648;2023-04-15T08:47:28;4.77;;;1.43;;
3683;SDS011;1858;48.716;9.648;2023-04-15T08:50:01;4.10;;;1.50;;
3683;SDS011;1858;48.716;9.648;2023-04-15T08:52:31;2.73;;;1.30;;
3683;SDS011;1858;48.716;9.648;2023-04-15T08:55:03;4.13;;;1.60;;
3683;SDS011;1858;48.716;9.648;2023-04-15T08:57:37;3.73;;;1.37;;
3683;SDS011;1858;48.716;9.648;2023-04-15T09:00:10;3.23;;;1.70;;
3683;SDS011;1858;48.716;9.648;2023-04-15T09:02:40;5.53;;;1.73;;
3683;SDS011;1858;48.716;9.648;2023-04-15T09:05:09;6.00;;;1.67;;
3683;SDS011;1858;48.716;9.648;2023-04-15T09:07:40;3.23;;;1.40;;
3683;SDS011;1858;48.716;9.648;2023-04-15T09:10:09;5.17;;;1.50;;
3683;SDS011;1858;48.716;9.648;2023-04-15T09:12:38;3.87;;;1.53;;
3683;SDS011;1858;48.716;9.648;2023-04-15T09:15:11;5.80;;;1.60;;
3683;SDS011;1858;48.716;9.648;2023-04-15T09:17:42;5.37;;;1.30;;
3683;SDS011;1858;48.716;9.648;2023-04-15T09:20:13;3.27;;;1.50;;
3683;SDS011;1858;48.716;9.648;2023-04-15T09:22:46;4.10;;;1.50;;
3683;SDS011;1858;48.716;9.648;2023-04-15T09:28:01;9.30;;;1.90;;
3683;SDS011;1858;48.716;9.648;2023-04-15T09:30:30;3.57;;;1.63;;
3683;SDS011;1858;48.716;9.648;2023-04-15T09:33:01;5.33;;;1.60;;
3683;SDS011;1858;48.716;9.648;2023-04-15T09:35:37;2.70;;;1.40;;
3683;SDS011;1858;48.716;9.648;2023-04-15T09:38:06;3.60;;;1.77;;
3683;SDS011;1858;48.716;9.648;2023-04-15T09:40:37;4.00;;;1.60;;
3683;SDS011;1858;48.716;9.648;2023-04-15T09:43:08;2.77;;;1.10;;
3683;SDS011;1858;48.716;9.648;2023-04-15T09:45:46;2.53;;;1.17;;
3683;SDS011;1858;48.716;9.648;2023-04-15T09:50:51;2.53;;;1.20;;
3683;SDS011;1858;48.716;9.648;2023-04-15T09:53:22;3.20;;;1.27;;
3683;SDS011;1858;48.716;9.648;2023-04-15T09:55:56;3.80;;;0.83;;
3683;SDS011;1858;48.716;9.648;2023-04-15T09:58:31;3.97;;;1.57;;
3683;SDS011;1858;48.716;9.648;2023-04-15T10:01:06;4.50;;;1.50;;
3683;SDS011;1858;48.716;9.648;2023-04-15T10:03:33;4.13;;;1.37;;
3683;SDS011;1858;48.716;9.648;2023-04-15T10:08:41;2.43;;;1.10;;
3683;SDS011;1858;48.716;9.648;2023-04-15T10:11:16;2.10;;;0.70;;
3683;SDS011;1858;48.716;9.648;2023-04-15T10:13:42;4.23;;;1.47;;
3683;SDS011;1858;48.716;9.648;2023-04-15T10:16:13;4.93;;;1.30;;
3683;SDS011;1858;48.716;9.648;2023-04-15T10:18:43;2.67;;;1.20;;
3683;SDS011;1858;48.716;9.648;2023-04-15T10:21:20;4.77;;;1.17;;
3683;SDS011;1858;48.716;9.648;2023-04-15T10:23:49;3.00;;;0.90;;
3683;SDS011;1858;48.716;9.648;2023-04-15T10:26:22;2.50;;;0.97;;
3683;SDS011;1858;48.716;9.648;2023-04-15T10:28:51;3.30;;;0.80;;
3683;SDS011;1858;48.716;9.648;2023-04-15T10:31:23;2.10;;;0.70;;
3683;SDS011;1858;48.716;9.648;2023-04-15T10:33:52;2.60;;;0.70;;
3683;SDS011;1858;48.716;9.648;2023-04-15T10:36:22;6.17;;;1.30;;
3683;SDS011;1858;48.716;9.648;2023-04-15T10:38:55;1.97;;;0.80;;
3683;SDS011;1858;48.716;9.648;2023-04-15T10:41:26;2.60;;;0.90;;
3683;SDS011;1858;48.716;9.648;2023-04-15T10:44:04;1.73;;;0.77;;
3683;SDS011;1858;48.716;9.648;2023-04-15T10:46:38;1.87;;;0.70;;
3683;SDS011;1858;48.716;9.648;2023-04-15T10:49:13;2.30;;;1.10;;
3683;SDS011;1858;48.716;9.648;2023-04-15T10:51:50;2.20;;;1.27;;
3683;SDS011;1858;48.716;9.648;2023-04-15T11:05:27;2.20;;;1.10;;
3683;SDS011;1858;48.716;9.648;2023-04-15T11:07:56;3.13;;;1.40;;
3683;SDS011;1858;48.716;9.648;2023-04-15T11:13:02;2.30;;;0.90;;
3683;SDS011;1858;48.716;9.648;2023-04-15T11:15:36;2.70;;;0.90;;
3683;SDS011;1858;48.716;9.648;2023-04-15T11:18:08;2.50;;;0.90;;
3683;SDS011;1858;48.716;9.648;2023-04-15T11:20:47;2.33;;;1.00;;
3683;SDS011;1858;48.716;9.648;2023-04-15T11:23:28;3.40;;;1.30;;
3683;SDS011;1858;48.716;9.648;2023-04-15T11:26:09;3.03;;;1.23;;
3683;SDS011;1858;48.716;9.648;2023-04-15T11:28:39;4.73;;;0.90;;
3683;SDS011;1858;48.716;9.648;2023-04-15T11:31:18;2.67;;;1.40;;
3683;SDS011;1858;48.716;9.648;2023-04-15T11:34:01;3.50;;;1.40;;
3683;SDS011;1858;48.716;9.648;2023-04-15T11:36:30;2.13;;;1.10;;
3683;SDS011;1858;48.716;9.648;2023-04-15T11:38:58;3.07;;;0.97;;
3683;SDS011;1858;48.716;9.648;2023-04-15T11:41:27;2.97;;;1.40;;
3683;SDS011;1858;48.716;9.648;2023-04-15T11:43:56;3.00;;;1.60;;
3683;SDS011;1858;48.716;9.648;2023-04-15T11:46:28;2.50;;;1.10;;
3683;SDS011;1858;48.716;9.648;2023-04-15T11:49:07;3.67;;;1.83;;
3683;SDS011;1858;48.716;9.648;2023-04-15T11:51:40;3.00;;;1.00;;
3683;SDS011;1858;48.716;9.648;2023-04-15T11:54:17;2.10;;;1.20;;
3683;SDS011;1858;48.716;9.648;2023-04-15T11:56:48;3.03;;;1.00;;
3683;SDS011;1858;48.716;9.648;2023-04-15T11:59:19;2.33;;;0.90;;
3683;SDS011;1858;48.716;9.648;2023-04-15T12:01:50;4.20;;;1.60;;
3683;SDS011;1858;48.716;9.648;2023-04-15T12:04:19;3.23;;;1.37;;
3683;SDS011;1858;48.716;9.648;2023-04-15T12:06:51;3.73;;;1.30;;
3683;SDS011;1858;48.716;9.648;2023-04-15T12:09:20;2.50;;;1.43;;
3683;SDS011;1858;48.716;9.648;2023-04-15T12:11:49;3.60;;;1.20;;
3683;SDS011;1858;48.716;9.648;2023-04-15T12:14:24;2.33;;;1.50;;
3683;SDS011;1858;48.716;9.648;2023-04-15T12:17:02;3.60;;;1.67;;
3683;SDS011;1858;48.716;9.648;2023-04-15T12:19:33;2.80;;;1.50;;
3683;SDS011;1858;48.716;9.648;2023-04-15T12:22:05;4.10;;;1.30;;
3683;SDS011;1858;48.716;9.648;2023-04-15T12:24:40;2.60;;;1.33;;
3683;SDS011;1858;48.716;9.648;2023-04-15T12:27:15;6.23;;;1.73;;
3683;SDS011;1858;48.716;9.648;2023-04-15T12:29:44;7.20;;;1.43;;
3683;SDS011;1858;48.716;9.648;2023-04-15T12:32:13;3.30;;;1.30;;
3683;SDS011;1858;48.716;9.648;2023-04-15T12:34:49;2.57;;;1.00;;
3683;SDS011;1858;48.716;9.648;2023-04-15T12:37:19;1.87;;;1.00;;
3683;SDS011;1858;48.716;9.648;2023-04-15T12:39:48;4.10;;;1.87;;
3683;SDS011;1858;48.716;9.648;2023-04-15T12:42:19;9.10;;;1.50;;
3683;SDS011;1858;48.716;9.648;2023-04-15T12:44:48;3.47;;;1.30;;
3683;SDS011;1858;48.716;9.648;2023-04-15T12:47:20;4.93;;;1.47;;
3683;SDS011;1858;48.716;9.648;2023-04-15T12:49:49;2.30;;;1.03;;
3683;SDS011;1858;48.716;9.648;2023-04-15T12:52:17;3.60;;;1.33;;
3683;SDS011;1858;48.716;9.648;2023-04-15T12:54:50;2.17;;;1.00;;
3683;SDS011;1858;48.716;9.648;2023-04-15T12:57:20;3.20;;;1.13;;
3683;SDS011;1858;48.716;9.648;2023-04-15T12:59:48;3.77;;;1.17;;
3683;SDS011;1858;48.716;9.648;2023-04-15T13:02:22;2.23;;;1.07;;
3683;SDS011;1858;48.716;9.648;2023-04-15T13:04:52;8.70;;;1.63;;
3683;SDS011;1858;48.716;9.648;2023-04-15T13:07:21;2.13;;;0.93;;
3683;SDS011;1858;48.716;9.648;2023-04-15T13:09:49;2.00;;;1.03;;
3683;SDS011;1858;48.716;9.648;2023-04-15T13:12:18;3.30;;;0.97;;
3683;SDS011;1858;48.716;9.648;2023-04-15T13:14:46;2.13;;;1.33;;
3683;SDS011;1858;48.716;9.648;2023-04-15T13:17:15;2.90;;;1.00;;
3683;SDS011;1858;48.716;9.648;2023-04-15T13:19:45;2.47;;;1.00;;
3683;SDS011;1858;48.716;9.648;2023-04-15T13:22:14;2.90;;;1.27;;
3683;SDS011;1858;48.716;9.648;2023-04-15T13:24:43;2.60;;;0.97;;
3683;SDS011;1858;48.716;9.648;2023-04-15T13:27:12;2.63;;;1.10;;
3683;SDS011;1858;48.716;9.648;2023-04-15T13:29:46;3.67;;;1.20;;
3683;SDS011;1858;48.716;9.648;2023-04-15T13:32:11;3.20;;;0.90;;
3683;SDS011;1858;48.716;9.648;2023-04-15T13:34:40;1.90;;;0.70;;
3683;SDS011;1858;48.716;9.648;2023-04-15T13:37:08;6.90;;;1.10;;
3683;SDS011;1858;48.716;9.648;2023-04-15T13:39:37;2.67;;;0.97;;
3683;SDS011;1858;48.716;9.648;2023-04-15T13:42:12;2.73;;;0.50;;
3683;SDS011;1858;48.716;9.648;2023-04-15T13:44:38;2.43;;;0.70;;
3683;SDS011;1858;48.716;9.648;2023-04-15T13:47:07;1.70;;;0.40;;
3683;SDS011;1858;48.716;9.648;2023-04-15T13:49:39;2.80;;;0.50;;
3683;SDS011;1858;48.716;9.648;2023-04-15T13:52:07;1.50;;;0.60;;
3683;SDS011;1858;48.716;9.648;2023-04-15T13:54:36;1.67;;;0.63;;
3683;SDS011;1858;48.716;9.648;2023-04-15T13:57:06;1.50;;;0.80;;
3683;SDS011;1858;48.716;9.648;2023-04-15T13:59:36;2.13;;;0.77;;
3683;SDS011;1858;48.716;9.648;2023-04-15T14:02:09;1.60;;;0.70;;
3683;SDS011;1858;48.716;9.648;2023-04-15T14:04:41;1.77;;;0.63;;
3683;SDS011;1858;48.716;9.648;2023-04-15T14:07:10;4.10;;;1.20;;
3683;SDS011;1858;48.716;9.648;2023-04-15T14:09:43;10.43;;;2.40;;
3683;SDS011;1858;48.716;9.648;2023-04-15T14:12:10;1.80;;;0.70;;
3683;SDS011;1858;48.716;9.648;2023-04-15T14:14:41;1.50;;;0.70;;
3683;SDS011;1858;48.716;9.648;2023-04-15T14:17:11;1.57;;;0.50;;
3683;SDS011;1858;48.716;9.648;2023-04-15T14:19:41;1.53;;;0.53;;
3683;SDS011;1858;48.716;9.648;2023-04-15T14:22:12;1.20;;;0.30;;
3683;SDS011;1858;48.716;9.648;2023-04-15T14:24:41;2.03;;;0.60;;
3683;SDS011;1858;48.716;9.648;2023-04-15T14:27:18;1.77;;;0.60;;
3683;SDS011;1858;48.716;9.648;2023-04-15T14:29:54;5.10;;;0.80;;
3683;SDS011;1858;48.716;9.648;2023-04-15T14:32:24;2.03;;;0.70;;
3683;SDS011;1858;48.716;9.648;2023-04-15T14:34:54;1.80;;;0.53;;
3683;SDS011;1858;48.716;9.648;2023-04-15T14:37:31;1.97;;;0.70;;
3683;SDS011;1858;48.716;9.648;2023-04-15T14:39:58;1.20;;;0.40;;
3683;SDS011;1858;48.716;9.648;2023-04-15T14:42:29;1.30;;;0.40;;
3683;SDS011;1858;48.716;9.648;2023-04-15T14:44:58;4.30;;;0.80;;
3683;SDS011;1858;48.716;9.648;2023-04-15T14:47:33;1.40;;;0.40;;
3683;SDS011;1858;48.716;9.648;2023-04-15T14:49:59;1.67;;;0.50;;
3683;SDS011;1858;48.716;9.648;2023-04-15T14:52:31;2.17;;;0.40;;
3683;SDS011;1858;48.716;9.648;2023-04-15T14:55:03;1.60;;;0.60;;
3683;SDS011;1858;48.716;9.648;2023-04-15T14:57:40;1.30;;;0.40;;
3683;SDS011;1858;48.716;9.648;2023-04-15T15:00:09;1.40;;;0.60;;
3683;SDS011;1858;48.716;9.648;2023-04-15T15:02:39;1.40;;;0.50;;
3683;SDS011;1858;48.716;9.648;2023-04-15T15:05:08;2.40;;;0.70;;
3683;SDS011;1858;48.716;9.648;2023-04-15T15:07:38;1.43;;;0.50;;
3683;SDS011;1858;48.716;9.648;2023-04-15T15:10:07;1.40;;;0.40;;
3683;SDS011;1858;48.716;9.648;2023-04-15T15:12:36;1.70;;;0.47;;
3683;SDS011;1858;48.716;9.648;2023-04-15T15:15:06;1.50;;;0.50;;
3683;SDS011;1858;48.716;9.648;2023-04-15T15:17:35;1.50;;;0.50;;
3683;SDS011;1858;48.716;9.648;2023-04-15T15:20:10;1.50;;;0.60;;
3683;SDS011;1858;48.716;9.648;2023-04-15T15:22:40;2.77;;;0.63;;
3683;SDS011;1858;48.716;9.648;2023-04-15T15:25:08;2.40;;;0.50;;
3683;SDS011;1858;48.716;9.648;2023-04-15T15:27:37;3.43;;;0.87;;
3683;SDS011;1858;48.716;9.648;2023-04-15T15:30:10;2.23;;;0.80;;
3683;SDS011;1858;48.716;9.648;2023-04-15T15:32:41;2.00;;;0.60;;
3683;SDS011;1858;48.716;9.648;2023-04-15T15:35:13;1.87;;;0.67;;
3683;SDS011;1858;48.716;9.648;2023-04-15T15:37:57;3.97;;;1.23;;
3683;SDS011;1858;48.716;9.648;2023-04-15T15:40:14;1.50;;;0.50;;
3683;SDS011;1858;48.716;9.648;2023-04-15T15:42:43;6.10;;;1.33;;
3683;SDS011;1858;48.716;9.648;2023-04-15T15:45:16;2.17;;;0.83;;
3683;SDS011;1858;48.716;9.648;2023-04-15T15:47:45;2.30;;;0.60;;
3683;SDS011;1858;48.716;9.648;2023-04-15T15:50:14;1.80;;;0.80;;
3683;SDS011;1858;48.716;9.648;2023-04-15T15:52:43;1.50;;;0.70;;
3683;SDS011;1858;48.716;9.648;2023-04-15T15:55:17;1.57;;;0.60;;
3683;SDS011;1858;48.716;9.648;2023-04-15T15:57:44;2.00;;;0.70;;
3683;SDS011;1858;48.716;9.648;2023-04-15T16:00:18;1.90;;;0.90;;
3683;SDS011;1858;48.716;9.648;2023-04-15T16:02:53;4.23;;;0.93;;
3683;SDS011;1858;48.716;9.648;2023-04-15T16:05:26;1.50;;;0.70;;